Tracy Creek, New York
Current Conditions -  °F | °C
As of 2:53 PM on Sunday 23 Nov 2014 (Local Time) from KBGM Reporting Station
Overcast Overcast  
Wind Chill: 44°   Ceiling: 8500
Heat Index: 46°   Visibility: 10mi
Dew Point: 36°   Wind: 5mph
Humidity: 68%   Direction: 150°SSE
Pressure: 30.04"   Gusts: NA
Location:  42.0463°N, 76.0314°W
Report Text: KBGM 231953Z 15004KT 10SM BKN085 OVC100 08/02 A3004 RMK AO2 SLP181 T00780022
Loading
Personal Weather Stations






























Interactive Weather Map New forecast layout! Learn more

10-Day Weather Forecast

Advertisements
Track Severe Weather on mobile